createdAt,value
2023-01-08T00:03:38.702Z,26.1
2023-01-08T00:08:41.549Z,26.1
2023-01-08T00:13:43.643Z,28.2
2023-01-08T00:18:45.843Z,28.6
2023-01-08T00:23:47.941Z,27.1
2023-01-08T00:28:50.032Z,25.5
2023-01-08T00:33:52.220Z,26.8
2023-01-08T00:38:54.327Z,25.6
2023-01-08T00:43:56.407Z,25.2
2023-01-08T00:48:58.475Z,25.9
2023-01-08T00:54:00.577Z,24.9
2023-01-08T00:59:02.784Z,25.1
2023-01-08T01:04:05.003Z,24.4
2023-01-08T01:09:07.374Z,23.8
2023-01-08T01:14:09.447Z,24.2
2023-01-08T01:19:12.166Z,23.8
2023-01-08T01:24:14.508Z,25.1
2023-01-08T01:29:16.645Z,25.9
2023-01-08T01:34:18.670Z,24
2023-01-08T01:39:20.841Z,23.7
2023-01-08T01:44:23.194Z,24.1
2023-01-08T01:49:26.563Z,24.6
2023-01-08T01:59:31.091Z,26.5
2023-01-08T02:04:33.230Z,26.5
2023-01-08T02:09:35.405Z,26.9
2023-01-08T02:14:37.465Z,24.3
2023-01-08T02:19:39.527Z,22.6
2023-01-08T02:24:41.656Z,23.2
2023-01-08T02:29:43.845Z,22.3
2023-01-08T02:34:47.179Z,21.3
2023-01-08T02:39:49.613Z,21.4
2023-01-08T02:44:51.683Z,22
2023-01-08T02:49:53.779Z,20.5
2023-01-08T02:54:56.146Z,19.9
2023-01-08T02:59:58.334Z,19.8
2023-01-08T03:05:00.334Z,18.7
2023-01-08T03:10:02.556Z,19.8
2023-01-08T03:15:04.682Z,19.1
2023-01-08T03:20:06.784Z,19.3
2023-01-08T03:25:08.909Z,19.6
2023-01-08T03:30:11.094Z,19.8
2023-01-08T03:35:13.259Z,20
2023-01-08T03:40:15.669Z,21.1
2023-01-08T03:45:18.019Z,21.1
2023-01-08T03:50:20.137Z,21.7
2023-01-08T03:55:22.293Z,20.4
2023-01-08T04:00:24.387Z,19.4
2023-01-08T04:05:26.763Z,18.8
2023-01-08T04:10:29.253Z,18.6
2023-01-08T04:15:31.450Z,19.4
2023-01-08T04:20:34.094Z,18.5
2023-01-08T04:25:36.457Z,19.5
2023-01-08T04:30:38.690Z,20.3
2023-01-08T04:35:40.953Z,20.1
2023-01-08T04:40:43.065Z,20.4
2023-01-08T04:45:45.517Z,20.3
2023-01-08T04:50:48.675Z,21.6
2023-01-08T04:55:51.031Z,21.5
2023-01-08T05:00:53.159Z,21.9
2023-01-08T05:05:55.246Z,22.4
2023-01-08T05:10:58.619Z,21.9
2023-01-08T05:16:00.954Z,22.9
2023-01-08T05:21:03.676Z,23.1
2023-01-08T05:26:05.766Z,23.3
2023-01-08T05:31:08.019Z,24.4
2023-01-08T05:36:10.638Z,23.3
2023-01-08T05:41:12.818Z,24.1
2023-01-08T05:46:15.037Z,24.9
2023-01-08T05:51:17.456Z,25
2023-01-08T05:56:19.650Z,25.1
2023-01-08T06:01:21.941Z,25.7
2023-01-08T06:06:24.580Z,25.1
2023-01-08T06:11:26.827Z,24.3
2023-01-08T06:16:29.043Z,24.1
2023-01-08T06:21:31.381Z,24.8
2023-01-08T06:26:33.560Z,30.1
2023-01-08T06:31:35.932Z,25.4
2023-01-08T06:36:38.527Z,26.3
2023-01-08T06:41:40.757Z,26.7
2023-01-08T06:46:45.305Z,26.9
2023-01-08T06:51:48.522Z,27.8
2023-01-08T06:56:55.113Z,28.2
2023-01-08T07:01:57.891Z,27.8
2023-01-08T07:07:04.255Z,28.4
2023-01-08T07:12:06.764Z,29
2023-01-08T07:17:09.162Z,29.2
2023-01-08T07:22:11.289Z,29.6
2023-01-08T07:27:13.792Z,29
2023-01-08T07:32:16.219Z,29.4
2023-01-08T07:37:18.609Z,30.6
2023-01-08T07:42:21.536Z,28.9
2023-01-08T07:47:23.846Z,29.8
2023-01-08T07:52:26.006Z,30.3
2023-01-08T07:57:28.572Z,29.4
2023-01-08T08:02:31.308Z,29.3
2023-01-08T08:07:35.085Z,31.4
2023-01-08T08:12:34.864Z,31.5
2023-01-08T08:17:37.282Z,30.3
2023-01-08T08:22:39.753Z,30.4
2023-01-08T08:27:42.006Z,21.5
2023-01-08T08:32:44.291Z,19.6
2023-01-08T08:37:46.621Z,18
2023-01-08T08:42:48.880Z,17.7
2023-01-08T08:47:51.015Z,16.9
2023-01-08T08:52:53.529Z,16.9
2023-01-08T08:57:56.287Z,16.2
2023-01-08T09:02:58.834Z,15.5
2023-01-08T09:08:07.734Z,16.7
2023-01-08T09:13:21.369Z,16.7
2023-01-08T09:18:22.936Z,16.4
2023-01-08T09:23:15.273Z,16.4
2023-01-08T09:28:20.267Z,16.1
2023-01-08T09:33:22.212Z,18.9
2023-01-08T09:38:24.709Z,14
2023-01-08T09:43:30.857Z,14.2
2023-01-08T09:48:33.219Z,15.2
2023-01-08T09:53:35.754Z,13.5
2023-01-08T09:58:38.779Z,13.4
2023-01-08T10:03:41.117Z,13.6
2023-01-08T10:08:43.199Z,13
2023-01-08T10:13:46.388Z,12.8
2023-01-08T10:18:48.460Z,13
2023-01-08T10:23:50.654Z,13.1
2023-01-08T10:28:52.821Z,10.2
2023-01-08T10:33:55.043Z,9.6
2023-01-08T10:38:57.198Z,9.7
2023-01-08T10:43:59.276Z,11.3
2023-01-08T10:49:01.387Z,9.1
2023-01-08T10:54:03.564Z,8.5
2023-01-08T10:59:05.642Z,8.5
2023-01-08T11:04:07.992Z,8.8
2023-01-08T11:09:10.674Z,9
2023-01-08T11:14:12.846Z,9.4
2023-01-08T11:19:14.981Z,10.2
2023-01-08T11:24:18.245Z,9.9
2023-01-08T11:29:20.368Z,9.3
2023-01-08T11:34:22.468Z,9.5
2023-01-08T11:39:24.954Z,9.9
2023-01-08T11:44:27.305Z,9.6
2023-01-08T11:49:31.888Z,10.2
2023-01-08T11:54:34.156Z,9.9
2023-01-08T11:59:36.350Z,9.5
2023-01-08T12:04:38.433Z,9.5
2023-01-08T12:09:40.851Z,10
2023-01-08T12:14:43.011Z,10.1
2023-01-08T12:19:45.126Z,10.6
2023-01-08T12:24:47.113Z,10
2023-01-08T12:29:49.269Z,9.7
2023-01-08T12:34:52.252Z,10.4
2023-01-08T12:39:55.003Z,10.6
2023-01-08T12:45:03.777Z,10.6
2023-01-08T12:50:06.616Z,10.3
2023-01-08T12:55:08.920Z,10.6
2023-01-08T13:00:16.686Z,10.6
2023-01-08T13:05:20.287Z,10.9
2023-01-08T13:10:22.651Z,11.4
2023-01-08T13:15:31.646Z,12.1
2023-01-08T13:20:38.539Z,12.6
2023-01-08T13:25:43.660Z,12.5
2023-01-08T13:30:47.371Z,12.5
2023-01-08T13:36:00.229Z,13.2
2023-01-08T13:41:04.820Z,13
2023-01-08T13:46:12.255Z,14.1
2023-01-08T13:51:19.523Z,14.3
2023-01-08T13:56:24.775Z,14.6
2023-01-08T14:01:27.432Z,15.7
2023-01-08T14:06:30.130Z,16.7
2023-01-08T14:11:33.678Z,17.8
2023-01-08T14:16:36.192Z,18.6
2023-01-08T14:21:39.771Z,18.2
2023-01-08T14:26:42.514Z,18.6
2023-01-08T14:31:45.559Z,20.1
2023-01-08T14:36:50.166Z,20.5
2023-01-08T14:41:52.530Z,21
2023-01-08T14:46:54.653Z,21.9
2023-01-08T14:51:57.017Z,21.8
2023-01-08T14:57:02.053Z,23
2023-01-08T15:02:04.612Z,23.7
2023-01-08T15:07:10.538Z,24
2023-01-08T15:12:13.034Z,24.3
2023-01-08T15:17:15.700Z,24.6
2023-01-08T15:22:19.610Z,24.5
2023-01-08T15:27:21.587Z,23.2
2023-01-08T15:32:23.854Z,22.8
2023-01-08T15:37:31.113Z,23.4
2023-01-08T15:42:33.450Z,22.6
2023-01-08T15:47:35.890Z,19.9
2023-01-08T15:52:38.700Z,18.6
2023-01-08T15:57:41.646Z,18.8
2023-01-08T16:02:47.463Z,17.8
2023-01-08T16:07:50.345Z,18.8
2023-01-08T16:12:53.020Z,18
2023-01-08T16:17:55.652Z,17.7
2023-01-08T16:22:57.830Z,17.8
2023-01-08T16:27:59.929Z,17.3
2023-01-08T16:33:03.230Z,17.4
2023-01-08T16:38:05.729Z,17.7
2023-01-08T16:43:08.278Z,17.8
2023-01-08T16:48:10.864Z,17.1
2023-01-08T16:53:13.297Z,16.8
2023-01-08T16:58:18.568Z,17.7
2023-01-08T17:03:21.322Z,17.1
2023-01-08T17:08:23.756Z,19.6
2023-01-08T17:13:25.938Z,16.7
2023-01-08T17:18:30.825Z,15.9
2023-01-08T17:23:32.882Z,16.3
2023-01-08T17:28:35.044Z,16.3
2023-01-08T17:33:36.999Z,15.9
2023-01-08T17:38:39.192Z,15.7
2023-01-08T17:43:41.470Z,14.9
2023-01-08T17:48:43.820Z,14.5
2023-01-08T17:53:46.168Z,13.8
2023-01-08T17:58:48.198Z,14.8
2023-01-08T18:03:50.604Z,14.5
2023-01-08T18:08:52.945Z,13.1
2023-01-08T18:13:55.038Z,13.8
2023-01-08T18:18:57.229Z,13.3
2023-01-08T18:23:59.737Z,13.6
2023-01-08T18:29:02.033Z,13.5
2023-01-08T18:34:04.007Z,13.6
2023-01-08T18:39:06.150Z,13.7
2023-01-08T18:44:08.293Z,14
2023-01-08T18:49:10.271Z,14.5
2023-01-08T18:54:12.587Z,13.9
2023-01-08T18:59:14.842Z,14.6
2023-01-08T19:04:17.316Z,14.3
2023-01-08T19:09:23.118Z,14.2
2023-01-08T19:14:25.550Z,14.5
2023-01-08T19:19:27.786Z,13.7
2023-01-08T19:24:30.053Z,13.8
2023-01-08T19:29:32.123Z,13.2
2023-01-08T19:34:34.184Z,13.8
2023-01-08T19:39:36.328Z,13.4
2023-01-08T19:44:38.538Z,13.4
2023-01-08T19:49:40.613Z,12.7
2023-01-08T19:54:42.678Z,12.6
2023-01-08T19:59:45.048Z,12.1
2023-01-08T20:04:47.904Z,11.8
2023-01-08T20:09:50.340Z,11.8
2023-01-08T20:14:53.044Z,11.8
2023-01-08T20:19:55.703Z,11.4
2023-01-08T20:24:59.605Z,11.4
2023-01-08T20:30:02.281Z,10.8
2023-01-08T20:35:04.814Z,11.1
2023-01-08T20:40:06.940Z,11.1
2023-01-08T20:45:09.070Z,11
2023-01-08T20:50:20.678Z,10.5
2023-01-08T20:55:12.994Z,10.3
2023-01-08T21:00:15.274Z,10.2
2023-01-08T21:05:17.557Z,9.6
2023-01-08T21:10:19.858Z,9.4
2023-01-08T21:15:22.083Z,9.4
2023-01-08T21:20:24.745Z,8.5
2023-01-08T21:25:27.359Z,9
2023-01-08T21:30:29.667Z,8.9
2023-01-08T21:35:31.778Z,8.6
2023-01-08T21:40:33.806Z,8.7
2023-01-08T21:45:36.050Z,9.2
2023-01-08T21:50:38.703Z,9.2
2023-01-08T21:55:41.148Z,8.8
2023-01-08T22:00:43.437Z,9.2
2023-01-08T22:05:46.046Z,9.4
2023-01-08T22:10:48.512Z,9.1
2023-01-08T22:15:51.118Z,9
2023-01-08T22:20:53.631Z,9.4
2023-01-08T22:25:55.749Z,9.2
2023-01-08T22:30:57.981Z,8.7
2023-01-08T22:36:00.232Z,8.8
2023-01-08T22:41:05.599Z,8.3
2023-01-08T22:46:08.175Z,8.7
2023-01-08T22:51:11.707Z,8.5
2023-01-08T22:56:13.844Z,8.6
2023-01-08T23:01:16.627Z,8.6
2023-01-08T23:06:19.173Z,8.8
2023-01-08T23:11:21.731Z,9.3
2023-01-08T23:16:25.881Z,9.3
2023-01-08T23:21:28.523Z,9.6
2023-01-08T23:26:30.841Z,10
2023-01-08T23:31:33.306Z,10.4
2023-01-08T23:36:35.702Z,10.6
2023-01-08T23:41:37.791Z,10.6
2023-01-08T23:46:39.889Z,10.6
2023-01-08T23:51:42.089Z,10.9
2023-01-08T23:56:44.230Z,10.7
